NCAR-RAP Real-Time Weather Data

Output produced by METARs form (08 May 2021  15:57 UTC)
found at http://weather.rap.ucar.edu/surface/
 
KEVV 081454Z 07005KT 10SM BKN080 OVC110 12/00 A3016 RMK AO2 SLP211 T01220000 53002 $
KEVV 081354Z 06007KT 10SM BKN090 OVC110 11/01 A3015 RMK AO2 SLP207 T01110011 $
KEVV 081254Z 06008KT 10SM BKN100 OVC120 10/01 A3015 RMK AO2 SLP208 T01000011 $
KEVV 081154Z 00000KT 10SM BKN100 09/03 A3015 RMK AO2 PRESRR SLP209 T00940028 10122 20061 53021 $
KEVV 081054Z AUTO 03006KT 10SM CLR 06/03 A3010 RMK AO2 SLP193 T00610028 $
KEVV 080954Z AUTO 04006KT 10SM SCT080 08/03 A3009 RMK AO2 SLP189 T00780028 $
KEVV 080854Z AUTO 04006KT 10SM OVC085 09/03 A3009 RMK AO2 SLP186 T00890033 51012 $
KEVV 080754Z AUTO 04007KT 10SM BKN080 09/03 A3008 RMK AO2 SLP183 T00940033 $
KEVV 080654Z AUTO 04009KT 10SM BKN080 BKN095 11/04 A3006 RMK AO2 SLP178 T01110044 $
KEVV 080554Z AUTO 04011KT 10SM BKN085 12/05 A3005 RMK AO2 SLP174 60000 T01220050 10194 20122 402110050 52016 $
KEVV 080454Z AUTO 01005KT 10SM BKN095 14/02 A3004 RMK AO2 SLP169 T01390017 $
KEVV 080354Z AUTO 01004KT 10SM FEW080 SCT100 16/04 A3002 RMK AO2 SLP163 T01560039 $
KEVV 080254Z 33004KT 10SM BKN075 OVC090 17/06 A3000 RMK AO2 RAB02E14 SLP158 P0000 60000 T01670056 53016 $
KEVV 080154Z 35009KT 10SM BKN085 OVC110 15/08 A2998 RMK AO2 SLP150 T01500078 $
KEVV 080054Z 24009KT 10SM BKN095 BKN120 16/08 A2995 RMK AO2 LTG DSNT E RAB40E53 SLP142 P0000 T01610083 $
KEVV 072354Z 25012KT 10SM SCT090 BKN110 19/04 A2996 RMK AO2 SLP143 T01940044 10211 20189 58013 $
KEVV 072254Z 26010KT 10SM CLR 21/04 A2997 RMK AO2 PK WND 26030/2203 SLP147 T02060044 $
KEVV 072154Z 25015G26KT 10SM BKN090 19/04 A2999 RMK AO2 PK WND 24029/2131 SLP154 T01940039 $
KEVV 072054Z 25018G29KT 10SM CLR 21/04 A3000 RMK AO2 PK WND 23029/2052 SLP156 T02060039 58033 $
KEVV 071954Z 26016KT 10SM CLR 21/03 A3004 RMK AO2 SLP170 T02060033 $
KEVV 071854Z 25014KT 10SM CLR 20/02 A3006 RMK AO2 SLP178 T02000022 $
KEVV 071754Z 26010G21KT 10SM CLR 19/03 A3009 RMK AO2 SLP190 T01890033 10189 20072 58008 $
KEVV 071654Z VRB05KT 10SM CLR 18/04 A3011 RMK AO2 SLP195 T01830039 $
KEVV 071554Z 27009KT 10SM CLR 17/05 A3012 RMK AO2 SLP199 T01670050 $
KEVV 071454Z 26008KT 10SM CLR 15/07 A3012 RMK AO2 SLP198 T01500072 52002 $
KEVV 071354Z 26010KT 10SM CLR 13/06 A3011 RMK AO2 SLP197 T01330061 $
KEVV 071254Z 26008KT 10SM CLR 11/06 A3011 RMK AO2 SLP198 T01060061 $
KEVV 071154Z 21003KT 10SM FEW085 07/06 A3011 RMK AO2 SLP197 70035 T00720061 10083 20050 53009 $
KEVV 071054Z 25004KT 10SM CLR 05/04 A3010 RMK AO2 SLP192 T00500039 $
KEVV 070954Z AUTO 27007KT 10SM CLR 07/05 A3009 RMK AO2 SLP189 T00670050 $
KEVV 070854Z AUTO 24005KT 10SM CLR 06/04 A3008 RMK AO2 SLP188 T00560044 56008 $
KEVV 070754Z AUTO 27005KT 10SM CLR 06/05 A3009 RMK AO2 SLP189 T00610050 $
KEVV 070654Z AUTO 26004KT 10SM CLR 07/05 A3010 RMK AO2 SLP191 T00670050 $
KEVV 070554Z AUTO 29004KT 10SM CLR 08/06 A3011 RMK AO2 SLP196 T00830056 10128 20083 401940067 58003 $
KEVV 070454Z AUTO 29004KT 10SM CLR 09/06 A3012 RMK AO2 SLP199 T00940061 $
KEVV 070354Z AUTO 28004KT 10SM CLR 10/07 A3012 RMK AO2 SLP200 T01000072 $
KEVV 070254Z 31008KT 10SM BKN080 12/08 A3012 RMK AO2 SLP199 T01170078 51028 $
KEVV 070154Z VRB06KT 10SM CLR 12/09 A3009 RMK AO2 SLP190 T01170089 $
KEVV 070054Z 28005KT 10SM BKN040 BKN048 BKN060 12/10 A3006 RMK AO2 SLP180 T01170100 $
KEVV 062354Z 20005KT 10SM FEW034 SCT048 BKN065 13/11 A3004 RMK AO2 RAB15E48 SLP171 P0014 60035 T01280106 10194 20111 51002 $
KEVV 062334Z 00000KT 3SM R22/5500VP6000FT RA BR BKN036 OVC050 12/11 A3005 RMK AO2 LTG DSNT S RAB15 P0014 T01220106 $
KEVV 062323Z 33007KT 1 3/4SM R22/4500VP6000FT +RA BR FEW024 BKN042 OVC095 12/11 A3007 RMK AO2 VIS 3/4V5 LTG DSNT SW RAB15 PRESRR P0002 T01220106 $
KEVV 062254Z 24005KT 10SM BKN065 BKN085 13/10 A3004 RMK AO2 LTG DSNT SW-NW SLP171 T01330100 $
KEVV 062154Z 25006KT 10SM SCT060 13/10 A3004 RMK AO2 RAE00 SLP174 P0000 T01330100 $
KEVV 062115Z 00000KT 10SM FEW007 SCT070 SCT110 13/11 A3003 RMK AO2 RAE00 P0000 T01280111 $
KEVV 062054Z 06005KT 5SM -RA BR BKN050 BKN065 OVC110 11/10 A3003 RMK AO2 PK WND 27036/2003 LTG DSNT NE-SE TSB14E40 SLP169 P0021 60021 T01110100 56016 $
KEVV 062042Z 03004KT 5SM +RA BR OVC045 11/10 A3004 RMK AO2 PK WND 27036/2003 LTG DSNT NE-S TSB14E40 P0017 T01110100 $
KEVV 062014Z 29010G25KT 2 1/2SM +TSRA BR BKN045 OVC060 11/09 A3008 RMK AO2 PK WND 27036/2003 LTG DSNT ALQDS TSB14 P0002 T01110094 $
KEVV 062007Z 27015G36KT 5SM VCTS RA FEW040 BKN049 OVC090 12/09 A3007 RMK AO2 PK WND 27036/2003 LTG DSNT ALQDS P0000 T01170089 $
KEVV 061954Z 22010KT 10SM -RA SCT060 OVC090 16/08 A3004 RMK AO2 LTG DSNT SW-N RAB46 SLP172 P0000 T01610083 $
KEVV 061854Z 21010KT 10SM FEW090 18/07 A3004 RMK AO2 SLP172 T01830072 $
KEVV 061754Z 19008KT 10SM BKN100 BKN110 18/06 A3008 RMK AO2 SLP184 T01780061 10183 20089 58029 $
KEVV 061654Z 18009KT 10SM BKN095 18/07 A3012 RMK AO2 SLP198 T01830067 $